Time;durP1;ratioP1;P1;durP2;ratioP2;P2;SDS_P1;SDS_P2;PMS_P1;PMS_P2;Temp;Humidity;BMP_temperature;BMP_pressure;BME280_temperature;BME280_humidity;BME280_pressure;Samples;Min_cycle;Max_cycle;Signal;HPM_P1;HPM_P2
2022/10/27 00:03:50;;;;;;;18.77;7.97;;;7.90;99.90;;;;;;8285343;28;20064;-83
2022/10/27 00:07:50;;;;;;;17.17;8.50;;;7.80;99.90;;;;;;8282817;28;20079;-82
2022/10/27 00:11:54;;;;;;;20.52;7.80;;;7.90;99.90;;;;;;8287843;28;20030;-82
2022/10/27 00:16:00;;;;;;;20.80;8.00;;;8.20;99.90;;;;;;8291338;28;20037;-83
2022/10/27 00:20:01;;;;;;;19.33;8.23;;;8.00;99.90;;;;;;8283118;28;20030;-83
2022/10/27 00:24:01;;;;;;;22.08;8.48;;;7.70;99.90;;;;;;8287176;28;20105;-83
2022/10/27 00:28:02;;;;;;;22.20;8.77;;;7.60;99.90;;;;;;8279863;28;21643;-82
2022/10/27 00:32:02;;;;;;;18.65;8.45;;;7.50;99.90;;;;;;8302488;28;20034;-83
2022/10/27 00:36:05;;;;;;;16.90;7.60;;;7.50;99.90;;;;;;8279465;28;20030;-83
2022/10/27 00:40:07;;;;;;;18.05;8.63;;;7.30;99.90;;;;;;8284107;28;20442;-81
2022/10/27 00:44:30;;;;;;;15.65;8.25;;;7.40;99.90;;;;;;8295056;28;20022;-83
2022/10/27 00:48:32;;;;;;;23.50;9.35;;;7.40;99.90;;;;;;8286791;28;20018;-83
2022/10/27 00:52:39;;;;;;;22.33;9.02;;;7.40;99.90;;;;;;8307455;28;20033;-83
2022/10/27 00:56:41;;;;;;;18.27;8.13;;;7.30;99.90;;;;;;8299703;28;20018;-84
2022/10/27 01:00:42;;;;;;;16.30;7.00;;;7.20;99.90;;;;;;8295067;28;20022;-84
2022/10/27 01:05:08;;;;;;;14.52;7.95;;;7.10;99.90;;;;;;8289341;28;20049;-82
2022/10/27 01:09:11;;;;;;;19.85;8.23;;;7.20;99.90;;;;;;8281891;28;20026;-83
2022/10/27 01:13:12;;;;;;;20.58;8.27;;;7.00;99.90;;;;;;8283648;28;20034;-83
2022/10/27 01:17:37;;;;;;;21.02;8.23;;;7.00;99.90;;;;;;8283801;28;20026;-83
2022/10/27 01:22:04;;;;;;;15.35;7.47;;;6.90;99.90;;;;;;8301472;28;20486;-83
2022/10/27 01:26:07;;;;;;;21.58;7.93;;;7.10;99.90;;;;;;8304245;28;20018;-81
2022/10/27 01:30:11;;;;;;;22.73;8.07;;;6.90;99.90;;;;;;8299029;28;20022;-83
2022/10/27 01:34:21;;;;;;;17.38;7.82;;;6.90;99.90;;;;;;8294995;28;20021;-83
2022/10/27 01:38:28;;;;;;;20.45;8.02;;;6.90;99.90;;;;;;8308059;28;20681;-84
2022/10/27 01:42:53;;;;;;;25.75;8.27;;;6.90;99.90;;;;;;8279513;28;20050;-84
2022/10/27 01:46:56;;;;;;;19.02;7.25;;;7.00;99.90;;;;;;8290645;28;20024;-83
2022/10/27 01:50:56;;;;;;;15.40;6.05;;;6.90;99.90;;;;;;8292559;28;20022;-83
2022/10/27 01:54:57;;;;;;;21.38;7.63;;;6.90;99.90;;;;;;8288942;28;20033;-83
2022/10/27 01:59:39;;;;;;;18.27;8.13;;;7.00;99.90;;;;;;8291214;28;20512;-82
2022/10/27 02:04:10;;;;;;;19.58;8.50;;;7.00;99.90;;;;;;8283930;28;20042;-84
2022/10/27 02:08:26;;;;;;;18.15;9.27;;;7.10;99.90;;;;;;8299341;28;20022;-84
2022/10/27 02:12:33;;;;;;;16.08;8.52;;;7.00;99.90;;;;;;8278139;28;20057;-83
2022/10/27 02:16:39;;;;;;;13.38;7.03;;;6.90;99.90;;;;;;8285399;28;20116;-82
2022/10/27 02:20:44;;;;;;;20.05;8.07;;;6.70;99.90;;;;;;8280526;28;20022;-83
2022/10/27 02:24:44;;;;;;;20.08;8.20;;;6.60;99.90;;;;;;8285937;28;20082;-83
2022/10/27 02:28:59;;;;;;;18.35;8.52;;;6.50;99.90;;;;;;8291390;28;20487;-83
2022/10/27 02:33:00;;;;;;;19.73;8.75;;;6.40;99.90;;;;;;8309257;23;20129;-86
2022/10/27 02:37:03;;;;;;;19.73;8.40;;;6.40;99.90;;;;;;8300542;28;20033;-86
2022/10/27 02:41:04;;;;;;;19.63;8.50;;;6.40;99.90;;;;;;8311372;28;20061;-85
2022/10/27 02:45:05;;;;;;;18.10;8.80;;;6.40;99.90;;;;;;8302091;28;20032;-86
2022/10/27 02:49:06;;;;;;;15.63;7.40;;;6.40;99.90;;;;;;8316481;28;20119;-86
2022/10/27 02:53:06;;;;;;;21.27;7.15;;;6.40;99.90;;;;;;8311866;28;20021;-85
2022/10/27 02:57:07;;;;;;;17.50;7.40;;;6.30;99.90;;;;;;8302381;28;20026;-85
2022/10/27 03:01:08;;;;;;;25.90;7.72;;;6.30;99.90;;;;;;8306420;28;20137;-85
2022/10/27 03:05:09;;;;;;;13.82;6.65;;;6.20;99.90;;;;;;8307895;28;20111;-85
2022/10/27 03:09:09;;;;;;;12.13;6.07;;;6.30;99.90;;;;;;8308308;28;20037;-85
2022/10/27 03:13:10;;;;;;;13.38;6.35;;;6.40;99.90;;;;;;8306470;28;20022;-85
2022/10/27 03:17:11;;;;;;;16.52;7.10;;;6.20;99.90;;;;;;8295643;28;20144;-86
2022/10/27 03:21:12;;;;;;;13.45;6.90;;;6.20;99.90;;;;;;8315223;28;20562;-86
2022/10/27 03:25:13;;;;;;;15.80;7.28;;;6.20;99.90;;;;;;8317995;28;20087;-85
2022/10/27 03:29:14;;;;;;;16.33;7.28;;;6.10;99.90;;;;;;8288741;28;20682;-86
2022/10/27 03:33:15;;;;;;;19.42;6.75;;;6.10;99.90;;;;;;8308585;28;20057;-85
2022/10/27 03:37:15;;;;;;;13.45;6.65;;;6.00;99.90;;;;;;8289332;28;20072;-86
2022/10/27 03:41:16;;;;;;;12.85;7.35;;;5.90;99.90;;;;;;8300609;28;20433;-86
2022/10/27 03:45:16;;;;;;;16.73;8.15;;;5.80;99.90;;;;;;8306021;28;20049;-85
2022/10/27 03:49:17;;;;;;;17.25;8.07;;;5.80;99.90;;;;;;8297720;28;20044;-85
2022/10/27 03:53:17;;;;;;;22.88;7.97;;;5.70;99.90;;;;;;8284767;28;20106;-85
2022/10/27 03:57:18;;;;;;;15.35;8.25;;;5.50;99.90;;;;;;8292630;28;20091;-85
2022/10/27 04:01:18;;;;;;;15.25;7.78;;;5.40;99.90;;;;;;8297161;28;20030;-85
2022/10/27 04:05:20;;;;;;;15.15;7.65;;;5.40;99.90;;;;;;8298690;28;20029;-85
2022/10/27 04:09:21;;;;;;;18.95;7.68;;;5.40;99.90;;;;;;8299829;28;20105;-85
2022/10/27 04:13:21;;;;;;;18.38;7.78;;;5.50;99.90;;;;;;8305022;28;20025;-85
2022/10/27 04:17:22;;;;;;;15.18;7.38;;;5.50;99.90;;;;;;8303198;28;20032;-86
2022/10/27 04:21:22;;;;;;;17.05;7.43;;;5.50;99.90;;;;;;8320502;28;20025;-86
2022/10/27 04:25:23;;;;;;;19.15;8.10;;;5.50;99.90;;;;;;8308798;28;20113;-86
2022/10/27 04:29:24;;;;;;;15.05;7.78;;;5.50;99.90;;;;;;8311916;28;20135;-86
2022/10/27 04:33:25;;;;;;;20.73;8.90;;;5.60;99.90;;;;;;8294787;28;20030;-85
2022/10/27 04:37:25;;;;;;;21.92;9.13;;;5.60;99.90;;;;;;8295275;28;20034;-85
2022/10/27 04:41:26;;;;;;;18.85;9.68;;;5.50;99.90;;;;;;8306214;28;20022;-85
2022/10/27 04:45:26;;;;;;;15.68;9.75;;;5.60;99.90;;;;;;8303183;28;20029;-86
2022/10/27 04:49:27;;;;;;;20.73;8.15;;;5.60;99.90;;;;;;8312535;28;20029;-86
2022/10/27 04:53:28;;;;;;;16.08;8.30;;;5.60;99.90;;;;;;8298139;28;20372;-86
2022/10/27 04:57:28;;;;;;;16.15;7.57;;;5.50;99.90;;;;;;8306904;28;20061;-86
2022/10/27 05:01:29;;;;;;;18.80;7.82;;;5.30;99.90;;;;;;8301015;28;20068;-86
2022/10/27 05:05:29;;;;;;;14.23;7.50;;;5.20;99.90;;;;;;8313703;28;20021;-86
2022/10/27 05:09:30;;;;;;;18.65;8.10;;;5.20;99.90;;;;;;8314848;28;20098;-86
2022/10/27 05:13:30;;;;;;;18.58;7.97;;;5.30;99.90;;;;;;8310703;28;20489;-86
2022/10/27 05:17:31;;;;;;;18.80;8.98;;;5.20;99.90;;;;;;8316162;28;20021;-86
2022/10/27 05:21:31;;;;;;;19.35;8.90;;;5.30;99.90;;;;;;8296457;28;20033;-85
2022/10/27 05:25:32;;;;;;;18.70;8.98;;;5.40;99.90;;;;;;8308082;28;20030;-85
2022/10/27 05:29:33;;;;;;;15.43;9.00;;;5.40;99.90;;;;;;8291577;28;20080;-85
2022/10/27 05:33:33;;;;;;;13.15;7.65;;;5.60;99.90;;;;;;8306444;28;20030;-86
2022/10/27 05:37:34;;;;;;;21.25;9.55;;;5.40;99.90;;;;;;8302637;28;20482;-86
2022/10/27 05:41:34;;;;;;;20.60;9.23;;;5.30;99.90;;;;;;8299215;28;20072;-86
2022/10/27 05:45:36;;;;;;;21.20;8.00;;;5.30;99.90;;;;;;8310208;28;20025;-86
2022/10/27 05:49:36;;;;;;;16.73;7.20;;;5.30;99.90;;;;;;8311006;28;20029;-85
2022/10/27 05:53:37;;;;;;;16.25;7.07;;;5.30;99.90;;;;;;8312038;28;20030;-85
2022/10/27 05:57:37;;;;;;;12.60;6.57;;;5.20;99.90;;;;;;8308726;28;20022;-86
2022/10/27 06:01:38;;;;;;;20.52;8.35;;;5.10;99.90;;;;;;8303030;28;20077;-86
2022/10/27 06:05:38;;;;;;;21.95;10.77;;;5.00;99.90;;;;;;8297589;28;20018;-85
2022/10/27 06:09:39;;;;;;;23.30;11.15;;;5.00;99.90;;;;;;8298868;28;20103;-86
2022/10/27 06:13:39;;;;;;;29.23;13.90;;;5.10;99.90;;;;;;8294364;28;20032;-86
2022/10/27 06:17:40;;;;;;;23.48;12.82;;;5.20;99.90;;;;;;8294541;28;20029;-85
2022/10/27 06:21:40;;;;;;;22.55;11.23;;;5.20;99.90;;;;;;8319166;28;20033;-85
2022/10/27 06:25:41;;;;;;;27.63;10.73;;;5.30;99.90;;;;;;8303906;28;20433;-85
2022/10/27 06:29:41;;;;;;;19.63;10.60;;;5.30;99.90;;;;;;8318608;28;20375;-85
2022/10/27 06:33:42;;;;;;;20.45;10.02;;;5.40;99.90;;;;;;8297404;28;20065;-85
2022/10/27 06:37:44;;;;;;;26.30;10.73;;;5.60;99.90;;;;;;8304343;28;20029;-86
2022/10/27 06:41:44;;;;;;;29.15;12.15;;;5.80;99.90;;;;;;8294451;28;20063;-86
2022/10/27 06:45:52;;;;;;;26.48;11.15;;;5.90;99.90;;;;;;8304153;28;20022;-86
2022/10/27 06:49:52;;;;;;;30.10;11.48;;;5.80;99.90;;;;;;8302834;28;20490;-85
2022/10/27 06:53:53;;;;;;;26.20;10.57;;;5.70;99.90;;;;;;8309828;28;20018;-86
2022/10/27 06:57:53;;;;;;;18.38;10.25;;;5.60;99.90;;;;;;8321178;28;20025;-84
2022/10/27 07:01:54;;;;;;;25.52;11.43;;;5.80;99.90;;;;;;8327021;28;20509;-85
2022/10/27 07:05:56;;;;;;;23.20;11.48;;;6.10;99.90;;;;;;8305060;28;20030;-86
2022/10/27 07:09:57;;;;;;;22.33;10.85;;;6.30;99.90;;;;;;8306749;28;20652;-85
2022/10/27 07:13:57;;;;;;;18.95;10.52;;;6.30;99.90;;;;;;8298120;28;20041;-86
2022/10/27 07:18:01;;;;;;;18.33;10.45;;;6.20;99.90;;;;;;8297645;28;20034;-86
2022/10/27 07:22:01;;;;;;;28.02;13.15;;;6.10;99.90;;;;;;8299359;28;20084;-86
2022/10/27 07:26:02;;;;;;;26.08;12.50;;;6.40;99.90;;;;;;8291540;28;20026;-85
2022/10/27 07:30:03;;;;;;;28.00;13.75;;;6.50;99.90;;;;;;8304485;28;20033;-86
2022/10/27 07:34:06;;;;;;;24.52;13.43;;;6.80;99.90;;;;;;8304845;28;20068;-86
2022/10/27 07:38:10;;;;;;;20.77;11.48;;;7.00;99.90;;;;;;8318973;28;20041;-85
2022/10/27 07:42:10;;;;;;;26.63;11.88;;;7.10;99.90;;;;;;8309209;28;20018;-86
2022/10/27 07:46:23;;;;;;;26.60;12.38;;;7.10;99.90;;;;;;8325174;28;20033;-85
2022/10/27 07:50:31;;;;;;;28.35;11.30;;;7.30;99.90;;;;;;8309633;28;20022;-85
2022/10/27 07:54:34;;;;;;;24.05;12.38;;;7.40;99.90;;;;;;8307144;28;20397;-86
2022/10/27 07:58:34;;;;;;;28.05;12.98;;;7.60;99.90;;;;;;8292526;28;20017;-86
2022/10/27 08:02:35;;;;;;;29.95;12.60;;;8.00;99.90;;;;;;8292920;28;20058;-86
2022/10/27 08:06:35;;;;;;;30.85;12.73;;;8.30;99.90;;;;;;8301513;28;20069;-86
2022/10/27 08:11:05;;;;;;;16.77;10.70;;;8.40;99.90;;;;;;8319135;28;20026;-86
2022/10/27 08:15:39;;;;;;;15.57;10.45;;;8.60;99.90;;;;;;8314032;28;20022;-86
2022/10/27 08:20:04;;;;;;;17.88;11.10;;;8.60;99.90;;;;;;8319315;28;20069;-86
2022/10/27 08:24:04;;;;;;;16.65;11.05;;;8.80;99.90;;;;;;8315697;28;20045;-86
2022/10/27 08:28:42;;;;;;;18.70;11.15;;;8.80;99.90;;;;;;8318336;28;20025;-86
2022/10/27 08:32:43;;;;;;;18.58;10.77;;;9.20;99.90;;;;;;8291725;28;20034;-86
2022/10/27 08:36:44;;;;;;;17.80;9.27;;;9.40;99.90;;;;;;8299676;28;20021;-85
2022/10/27 08:41:10;;;;;;;16.90;8.90;;;10.00;99.90;;;;;;8301851;28;20033;-86
2022/10/27 08:45:18;;;;;;;17.05;9.32;;;9.90;99.90;;;;;;8314780;28;20025;-85
2022/10/27 08:49:27;;;;;;;16.40;9.30;;;10.00;99.90;;;;;;8309133;28;20022;-86
2022/10/27 08:53:34;;;;;;;17.38;10.85;;;10.30;99.90;;;;;;8312410;28;20072;-85
2022/10/27 08:57:36;;;;;;;17.75;9.05;;;10.70;99.90;;;;;;8323812;28;20087;-87
2022/10/27 09:01:50;;;;;;;13.50;6.75;;;11.20;99.90;;;;;;8317625;28;20379;-86
2022/10/27 09:05:54;;;;;;;14.95;6.22;;;11.40;99.90;;;;;;8315604;28;20025;-86
2022/10/27 09:10:01;;;;;;;13.75;6.05;;;11.80;99.90;;;;;;8313888;28;20022;-86
2022/10/27 09:14:20;;;;;;;15.45;5.55;;;12.40;99.90;;;;;;8308442;28;20029;-86
2022/10/27 09:18:29;;;;;;;12.70;5.07;;;12.80;99.90;;;;;;8300561;28;20049;-86
2022/10/27 09:22:36;;;;;;;8.57;4.35;;;12.80;99.90;;;;;;8323514;28;20025;-87
2022/10/27 09:26:37;;;;;;;6.93;3.95;;;13.40;99.90;;;;;;8320853;28;20111;-87
2022/10/27 09:30:39;;;;;;;9.77;3.88;;;14.10;99.90;;;;;;8298893;28;20022;-86
2022/10/27 09:34:45;;;;;;;11.15;4.20;;;14.70;99.90;;;;;;8302732;28;20022;-87
2022/10/27 09:39:17;;;;;;;8.52;4.25;;;15.10;99.90;;;;;;8311388;28;20033;-86
2022/10/27 09:43:22;;;;;;;10.45;4.10;;;15.00;99.90;;;;;;8309165;28;20636;-86
2022/10/27 09:47:27;;;;;;;7.93;3.33;;;15.50;99.90;;;;;;8313826;28;20437;-86
2022/10/27 09:52:00;;;;;;;9.45;3.20;;;16.00;99.90;;;;;;8324390;28;20030;-87
2022/10/27 09:56:07;;;;;;;6.95;3.85;;;16.80;99.90;;;;;;8311699;28;20502;-86
2022/10/27 10:00:20;;;;;;;7.03;3.05;;;17.40;99.90;;;;;;8315609;28;20035;-86
2022/10/27 10:04:47;;;;;;;10.13;3.42;;;18.60;99.90;;;;;;8303367;28;20045;-86
2022/10/27 10:09:07;;;;;;;12.23;3.30;;;18.80;99.90;;;;;;8327498;28;20030;-86
2022/10/27 10:13:15;;;;;;;8.93;3.53;;;18.60;99.90;;;;;;8311512;28;20121;-86
2022/10/27 10:17:36;;;;;;;10.50;3.50;;;18.40;99.90;;;;;;8314443;28;20493;-86
2022/10/27 10:22:07;;;;;;;11.18;3.17;;;18.40;99.90;;;;;;8302529;28;20038;-87
2022/10/27 10:26:17;;;;;;;10.55;3.88;;;18.40;99.90;;;;;;8327381;28;20105;-85
2022/10/27 10:30:29;;;;;;;;;;;18.70;99.90;;;;;;8320981;28;20026;-86
2022/10/27 10:34:42;;;;;;;8.98;3.50;;;18.90;99.90;;;;;;8294667;28;19921;-86
2022/10/27 10:38:55;;;;;;;10.77;3.30;;;19.20;99.90;;;;;;8296418;28;20026;-86
2022/10/27 10:43:20;;;;;;;8.23;3.10;;;19.90;99.90;;;;;;8304188;28;20033;-87
2022/10/27 10:47:46;;;;;;;6.95;3.33;;;21.10;99.90;;;;;;8308046;28;20402;-87
2022/10/27 10:52:34;;;;;;;7.05;3.22;;;22.90;99.90;;;;;;8301723;28;20030;-87
2022/10/27 10:56:47;;;;;;;9.10;3.22;;;24.60;99.90;;;;;;8299219;28;20370;-86
2022/10/27 11:01:00;;;;;;;8.90;3.13;;;25.40;99.90;;;;;;8299382;28;20068;-86
2022/10/27 11:05:17;;;;;;;5.63;1.48;;;26.30;99.90;;;;;;8308449;28;20029;-86
2022/10/27 11:09:18;;;;;;;4.43;1.48;;;26.40;98.30;;;;;;8293135;28;20041;-86
2022/10/27 11:13:55;;;;;;;5.95;1.38;;;26.40;96.10;;;;;;8318399;28;20075;-86
2022/10/27 11:18:13;;;;;;;4.53;1.45;;;26.60;93.70;;;;;;8306741;28;20037;-86
2022/10/27 11:22:17;;;;;;;4.35;1.35;;;26.80;91.00;;;;;;8293972;28;20449;-85
2022/10/27 11:26:33;;;;;;;3.08;1.38;;;27.50;85.80;;;;;;8296647;28;20061;-86
2022/10/27 11:30:38;;;;;;;4.75;1.50;;;28.10;85.20;;;;;;8311699;28;20032;-86
2022/10/27 11:35:12;;;;;;;3.45;1.30;;;28.50;83.00;;;;;;8312279;28;20022;-85
2022/10/27 11:39:30;;;;;;;4.20;1.40;;;28.80;75.70;;;;;;8291230;28;20036;-86
2022/10/27 11:43:36;;;;;;;2.22;1.30;;;28.80;75.90;;;;;;8309102;28;20033;-86
2022/10/27 11:48:08;;;;;;;3.88;1.52;;;28.50;74.00;;;;;;8309877;28;20025;-86
2022/10/27 11:52:33;;;;;;;5.65;1.38;;;28.40;73.60;;;;;;8312583;28;20252;-86
2022/10/27 11:56:55;;;;;;;9.75;1.67;;;28.60;70.00;;;;;;8301362;28;20026;-86
2022/10/27 12:01:06;;;;;;;6.00;1.42;;;28.80;72.40;;;;;;8321043;28;20059;-86
2022/10/27 12:05:11;;;;;;;5.88;1.40;;;29.10;69.70;;;;;;8323908;28;20505;-86
2022/10/27 12:09:34;;;;;;;4.18;1.30;;;29.50;70.50;;;;;;8308816;28;20013;-86
2022/10/27 12:14:02;;;;;;;7.57;1.75;;;29.60;71.20;;;;;;8299935;28;20018;-87
2022/10/27 12:18:23;;;;;;;5.32;1.40;;;30.10;65.40;;;;;;8309090;28;20033;-86
2022/10/27 12:22:35;;;;;;;8.10;1.67;;;27.40;72.10;;;;;;8300285;28;20022;-86
2022/10/27 12:27:17;;;;;;;4.35;1.50;;;24.60;82.60;;;;;;8299655;28;20153;-86
2022/10/27 12:31:24;;;;;;;6.40;1.42;;;22.90;89.50;;;;;;8208320;28;20046;-86
2022/10/27 12:35:39;;;;;;;5.28;1.45;;;21.70;93.50;;;;;;8298044;28;20026;-86
2022/10/27 12:39:50;;;;;;;3.63;1.67;;;21.10;93.80;;;;;;8300651;28;20040;-85
2022/10/27 12:44:06;;;;;;;5.45;2.25;;;20.80;97.80;;;;;;8299611;28;20269;-86
2022/10/27 12:48:31;;;;;;;6.95;1.40;;;20.50;98.90;;;;;;8309372;28;20033;-86
2022/10/27 12:52:40;;;;;;;5.35;1.88;;;20.30;99.10;;;;;;8314034;28;20511;-86
2022/10/27 12:57:04;;;;;;;5.80;1.88;;;20.00;99.90;;;;;;8318767;28;20052;-86
2022/10/27 13:01:29;;;;;;;5.95;1.70;;;19.80;99.90;;;;;;8286453;28;20029;-86
2022/10/27 13:05:50;;;;;;;7.65;1.70;;;19.80;99.90;;;;;;8298825;28;20029;-85
2022/10/27 13:10:26;;;;;;;9.20;2.55;;;19.90;99.90;;;;;;8293534;28;20031;-86
2022/10/27 13:14:51;;;;;;;4.85;1.45;;;19.90;99.90;;;;;;8266535;28;20038;-86
2022/10/27 13:19:20;;;;;;;5.85;1.85;;;20.00;99.90;;;;;;8291648;28;20026;-86
2022/10/27 13:23:53;;;;;;;4.28;1.30;;;20.00;99.90;;;;;;8299205;28;20080;-86
2022/10/27 13:28:18;;;;;;;4.32;1.55;;;19.80;99.90;;;;;;8255679;28;20037;-86
2022/10/27 13:32:19;;;;;;;4.72;1.60;;;19.70;99.90;;;;;;8294501;28;20096;-86
2022/10/27 13:36:23;;;;;;;3.45;1.42;;;19.60;99.90;;;;;;8300235;28;20057;-86
2022/10/27 13:40:26;;;;;;;4.70;1.77;;;19.60;99.90;;;;;;8302693;28;20034;-86
2022/10/27 13:44:33;;;;;;;5.18;1.30;;;19.50;99.90;;;;;;8290776;28;20498;-85
2022/10/27 13:48:34;;;;;;;4.05;1.50;;;19.50;99.90;;;;;;8314759;28;20017;-86
2022/10/27 13:52:34;;;;;;;5.32;1.27;;;19.70;99.90;;;;;;8323185;28;20117;-85
2022/10/27 13:56:37;;;;;;;4.10;1.92;;;19.80;99.90;;;;;;8336419;28;20448;-87
2022/10/27 14:01:01;;;;;;;5.05;1.52;;;19.80;99.90;;;;;;8312491;28;20440;-86
2022/10/27 14:05:12;;;;;;;3.40;1.38;;;19.90;99.90;;;;;;8318736;28;20099;-86
2022/10/27 14:09:34;;;;;;;7.57;1.58;;;19.90;99.90;;;;;;8307539;28;20075;-86
2022/10/27 14:13:42;;;;;;;4.90;1.70;;;19.80;99.90;;;;;;8304095;28;20026;-86
2022/10/27 14:17:45;;;;;;;5.55;2.00;;;19.80;99.90;;;;;;8311598;28;20116;-86
2022/10/27 14:21:50;;;;;;;6.90;1.90;;;19.90;99.90;;;;;;8317299;28;20022;-86
2022/10/27 14:25:50;;;;;;;6.78;1.95;;;19.70;99.90;;;;;;8302711;28;20018;-86
2022/10/27 14:29:51;;;;;;;7.88;1.80;;;19.60;99.90;;;;;;8308868;28;20029;-86
2022/10/27 14:33:52;;;;;;;4.85;1.80;;;19.40;99.90;;;;;;8310754;28;20029;-86
2022/10/27 14:37:56;;;;;;;3.80;1.38;;;19.50;99.90;;;;;;8296070;28;20026;-86
2022/10/27 14:42:02;;;;;;;3.80;1.80;;;19.40;99.90;;;;;;8307203;28;20029;-86
2022/10/27 14:46:03;;;;;;;5.47;1.55;;;19.10;99.90;;;;;;8319153;28;20052;-86
2022/10/27 14:50:24;;;;;;;4.10;1.60;;;18.90;99.90;;;;;;8309373;28;20475;-86
2022/10/27 14:54:27;;;;;;;3.90;1.80;;;18.50;99.90;;;;;;8296496;28;20084;-86
2022/10/27 14:58:28;;;;;;;6.35;1.90;;;18.60;99.90;;;;;;8317494;28;20021;-86
2022/10/27 15:02:28;;;;;;;5.75;1.60;;;18.50;99.90;;;;;;8309294;28;20510;-88
2022/10/27 15:06:31;;;;;;;9.63;1.98;;;18.20;99.90;;;;;;8290819;28;20029;-89
2022/10/27 15:10:35;;;;;;;7.07;1.92;;;17.80;99.90;;;;;;8298424;28;20057;-89
2022/10/27 15:14:37;;;;;;;4.57;1.80;;;17.70;99.90;;;;;;8294692;28;20030;-89
2022/10/27 15:18:42;;;;;;;7.68;2.25;;;17.70;99.90;;;;;;8296774;28;20033;-90
2022/10/27 15:22:46;;;;;;;7.00;1.90;;;17.80;99.90;;;;;;8310604;28;20033;-89
2022/10/27 15:26:47;;;;;;;7.10;2.00;;;17.90;99.90;;;;;;8324151;28;20030;-90
2022/10/27 15:30:48;;;;;;;11.48;3.08;;;17.70;99.90;;;;;;8311703;28;20037;-89
2022/10/27 15:34:48;;;;;;;6.35;1.70;;;17.70;99.90;;;;;;8308796;28;20018;-90
2022/10/27 15:38:50;;;;;;;10.65;4.25;;;17.50;99.90;;;;;;8304334;28;20017;-90
2022/10/27 15:42:51;;;;;;;9.20;3.20;;;16.90;99.90;;;;;;8311209;28;20029;-90
2022/10/27 15:46:54;;;;;;;5.40;2.90;;;16.30;99.90;;;;;;8298310;28;20029;-90
2022/10/27 15:51:02;;;;;;;6.68;2.92;;;15.90;99.90;;;;;;8306451;28;20026;-90
2022/10/27 15:55:04;;;;;;;8.27;4.68;;;15.60;99.90;;;;;;8302133;28;20032;-90
2022/10/27 15:59:10;;;;;;;6.20;2.15;;;15.60;99.90;;;;;;8303720;28;20030;-90
2022/10/27 16:03:27;;;;;;;6.15;2.20;;;16.00;99.90;;;;;;8308266;28;20052;-89
2022/10/27 16:07:28;;;;;;;8.18;2.00;;;16.00;99.90;;;;;;8309426;28;20508;-89
2022/10/27 16:11:37;;;;;;;2.65;1.88;;;15.40;99.90;;;;;;8302615;28;20110;-89
2022/10/27 16:15:43;;;;;;;7.30;1.90;;;14.90;99.90;;;;;;8310619;28;20029;-89
2022/10/27 16:19:44;;;;;;;6.00;1.80;;;14.60;99.90;;;;;;8320155;28;20026;-90
2022/10/27 16:23:44;;;;;;;4.45;2.70;;;14.30;99.90;;;;;;8307530;28;20033;-89
2022/10/27 16:27:45;;;;;;;8.20;3.75;;;14.10;99.90;;;;;;8301741;28;20156;-86
2022/10/27 16:31:47;;;;;;;23.80;11.85;;;13.70;99.90;;;;;;8290206;28;20054;-87
2022/10/27 16:35:48;;;;;;;24.95;10.43;;;13.60;99.90;;;;;;8299177;28;20462;-86
2022/10/27 16:39:49;;;;;;;11.95;6.03;;;13.70;99.90;;;;;;8320405;28;20029;-87
2022/10/27 16:43:49;;;;;;;5.38;2.58;;;13.70;99.90;;;;;;8308708;28;20018;-86
2022/10/27 16:47:51;;;;;;;10.05;2.75;;;13.80;99.90;;;;;;8308458;28;20103;-86
2022/10/27 16:51:51;;;;;;;4.35;2.40;;;13.70;99.90;;;;;;8314172;28;20032;-86
2022/10/27 16:56:02;;;;;;;6.97;2.70;;;13.20;99.90;;;;;;8300764;28;20034;-87
2022/10/27 17:00:04;;;;;;;8.00;2.60;;;12.90;99.90;;;;;;8313015;28;20486;-87
2022/10/27 17:04:05;;;;;;;6.88;2.88;;;12.70;99.90;;;;;;8317016;28;20065;-86
2022/10/27 17:08:06;;;;;;;7.88;3.60;;;12.50;99.90;;;;;;8305652;28;20037;-86
2022/10/27 17:12:06;;;;;;;13.13;5.43;;;12.50;99.90;;;;;;8300507;28;20030;-86
2022/10/27 17:16:10;;;;;;;6.57;3.30;;;12.50;99.90;;;;;;8301200;28;20030;-86
2022/10/27 17:20:10;;;;;;;9.18;2.95;;;12.70;99.90;;;;;;8297262;28;20026;-86
2022/10/27 17:24:11;;;;;;;10.43;3.22;;;12.80;99.90;;;;;;8314532;28;20036;-85
2022/10/27 17:28:11;;;;;;;3.92;2.58;;;12.50;99.90;;;;;;8343215;28;20017;-84
2022/10/27 17:32:13;;;;;;;11.35;2.70;;;12.50;99.90;;;;;;8315714;28;20451;-86
2022/10/27 17:36:14;;;;;;;6.53;3.00;;;12.20;99.90;;;;;;8318812;28;20021;-86
2022/10/27 17:40:15;;;;;;;6.88;3.40;;;12.70;99.90;;;;;;8318832;28;20025;-86
2022/10/27 17:44:15;;;;;;;5.18;2.20;;;12.80;99.90;;;;;;8310605;28;20041;-86
2022/10/27 17:48:16;;;;;;;11.15;2.72;;;12.80;99.90;;;;;;8305417;28;20026;-85
2022/10/27 17:52:16;;;;;;;12.52;2.65;;;12.60;99.90;;;;;;8302057;28;20033;-86
2022/10/27 17:56:19;;;;;;;4.40;2.80;;;12.20;99.90;;;;;;8311218;28;20079;-86
2022/10/27 18:00:23;;;;;;;5.60;3.03;;;12.10;99.90;;;;;;8304674;28;20026;-86
2022/10/27 18:04:23;;;;;;;7.20;2.97;;;11.80;99.90;;;;;;8304192;28;20025;-86
2022/10/27 18:08:24;;;;;;;6.68;3.08;;;11.30;99.90;;;;;;8300712;28;20017;-86
2022/10/27 18:12:25;;;;;;;9.15;3.38;;;11.20;99.90;;;;;;8314918;28;20026;-86
2022/10/27 18:16:28;;;;;;;11.95;3.97;;;11.10;99.90;;;;;;8317032;28;20585;-86
2022/10/27 18:20:29;;;;;;;8.20;3.67;;;11.10;99.90;;;;;;8291929;28;20022;-86
2022/10/27 18:24:29;;;;;;;8.65;3.95;;;11.20;99.90;;;;;;8285209;28;20032;-86
2022/10/27 18:28:30;;;;;;;8.55;4.22;;;11.00;99.90;;;;;;8307368;28;20104;-86
2022/10/27 18:32:31;;;;;;;8.70;4.80;;;10.70;99.90;;;;;;8318245;28;20044;-86
2022/10/27 18:36:33;;;;;;;15.60;6.82;;;10.50;99.90;;;;;;8312976;28;20025;-86
2022/10/27 18:40:33;;;;;;;17.67;8.40;;;10.40;99.90;;;;;;8323825;28;20049;-85
2022/10/27 18:44:34;;;;;;;20.38;10.93;;;10.20;99.90;;;;;;8292778;28;20080;-86
2022/10/27 18:48:36;;;;;;;19.88;10.43;;;10.20;99.90;;;;;;8312982;28;20022;-86
2022/10/27 18:52:36;;;;;;;20.45;11.23;;;10.20;99.90;;;;;;8303844;28;20022;-86
2022/10/27 18:56:37;;;;;;;18.90;8.38;;;10.40;99.90;;;;;;8306819;28;20036;-86
2022/10/27 19:00:37;;;;;;;13.80;6.57;;;10.50;99.90;;;;;;8311832;28;20017;-85
2022/10/27 19:04:38;;;;;;;13.40;5.03;;;10.50;99.90;;;;;;8311096;28;20075;-86
2022/10/27 19:08:39;;;;;;;9.30;4.18;;;10.50;99.90;;;;;;8312499;28;20021;-86
2022/10/27 19:12:39;;;;;;;11.98;4.60;;;10.50;99.90;;;;;;8315722;28;20022;-86
2022/10/27 19:16:40;;;;;;;8.80;4.78;;;10.70;99.90;;;;;;8309393;28;20526;-86
2022/10/27 19:20:41;;;;;;;14.32;4.05;;;10.60;99.90;;;;;;8313340;28;20025;-86
2022/10/27 19:24:42;;;;;;;12.63;4.35;;;10.30;99.90;;;;;;8324749;28;20028;-85
2022/10/27 19:28:45;;;;;;;11.23;4.43;;;10.20;99.90;;;;;;8319110;28;20621;-86
2022/10/27 19:32:46;;;;;;;10.90;5.10;;;10.40;99.90;;;;;;8314484;28;20067;-86
2022/10/27 19:36:46;;;;;;;7.85;5.38;;;10.60;99.90;;;;;;8307613;28;20021;-86
2022/10/27 19:40:47;;;;;;;13.60;6.18;;;10.50;99.90;;;;;;8310249;28;20030;-86
2022/10/27 19:44:50;;;;;;;10.68;5.20;;;10.20;99.90;;;;;;8295786;28;20803;-86
2022/10/27 19:48:52;;;;;;;9.18;5.55;;;10.10;99.90;;;;;;8310207;28;20101;-86
2022/10/27 19:52:53;;;;;;;12.10;5.95;;;10.10;99.90;;;;;;8311930;28;20029;-86
2022/10/27 19:56:54;;;;;;;11.40;6.28;;;10.10;99.90;;;;;;8294648;28;20025;-86
2022/10/27 20:00:54;;;;;;;10.30;6.00;;;10.30;99.90;;;;;;8308329;28;20028;-86
2022/10/27 20:04:55;;;;;;;12.35;5.63;;;10.20;99.90;;;;;;8291609;28;20120;-86
2022/10/27 20:08:56;;;;;;;13.60;6.07;;;10.20;99.90;;;;;;8303775;28;20052;-86
2022/10/27 20:12:56;;;;;;;13.70;6.18;;;10.10;99.90;;;;;;8312823;28;20029;-86
2022/10/27 20:16:57;;;;;;;9.45;5.72;;;9.90;99.90;;;;;;8309110;28;20555;-86
2022/10/27 20:20:58;;;;;;;12.40;6.00;;;9.70;99.90;;;;;;8290064;28;20064;-86
2022/10/27 20:24:58;;;;;;;14.63;7.82;;;9.70;99.90;;;;;;8309088;28;20117;-86
2022/10/27 20:28:59;;;;;;;13.35;6.95;;;9.70;99.90;;;;;;8323094;28;20054;-86
2022/10/27 20:32:59;;;;;;;11.25;6.90;;;9.60;99.90;;;;;;8329977;28;20049;-86
2022/10/27 20:37:00;;;;;;;10.57;6.03;;;9.70;99.90;;;;;;8303789;28;20025;-86
2022/10/27 20:41:15;;;;;;;10.90;5.38;;;10.20;99.90;;;;;;8314028;28;20025;-86
2022/10/27 20:45:15;;;;;;;16.00;9.07;;;10.40;99.90;;;;;;8313133;28;20075;-86
2022/10/27 20:49:16;;;;;;;14.30;8.63;;;10.20;99.90;;;;;;8307953;28;20022;-86
2022/10/27 20:53:16;;;;;;;10.85;6.38;;;9.80;99.90;;;;;;8316356;28;20122;-86
2022/10/27 20:57:17;;;;;;;9.88;6.00;;;9.50;99.90;;;;;;8304453;28;20398;-86
2022/10/27 21:01:23;;;;;;;10.55;6.13;;;9.30;99.90;;;;;;8312651;28;20502;-86
2022/10/27 21:05:24;;;;;;;12.68;6.55;;;9.40;99.90;;;;;;8318469;28;20014;-86
2022/10/27 21:09:25;;;;;;;13.85;6.93;;;9.50;99.90;;;;;;8303133;28;20030;-86
2022/10/27 21:13:25;;;;;;;15.80;7.82;;;9.60;99.90;;;;;;8311180;28;20502;-86
2022/10/27 21:17:26;;;;;;;11.30;7.15;;;9.80;99.90;;;;;;8311303;28;20022;-86